Time;durP1;ratioP1;P1;durP2;ratioP2;P2;SDS_P1;SDS_P2;PMS_P1;PMS_P2;Temp;Humidity;BMP_temperature;BMP_pressure;BME280_temperature;BME280_humidity;BME280_pressure;Samples;Min_cycle;Max_cycle;Signal;HPM_P1;HPM_P2
2023/03/08 00:00:02;;;;;;;14.85;10.00;;;6.30;46.60;;;;;;5054819;28;20190;-70
2023/03/08 00:02:30;;;;;;;14.80;8.15;;;6.30;46.80;;;;;;5054966;28;20746;-69
2023/03/08 00:04:57;;;;;;;19.45;9.55;;;6.40;46.70;;;;;;5055104;28;20281;-69
2023/03/08 00:07:24;;;;;;;14.60;9.43;;;6.40;46.50;;;;;;5064218;28;20277;-69
2023/03/08 00:09:51;;;;;;;16.33;9.07;;;6.40;46.50;;;;;;5074716;28;20229;-69
2023/03/08 00:12:19;;;;;;;14.15;8.60;;;6.30;46.60;;;;;;5055990;28;20244;-70
2023/03/08 00:14:47;;;;;;;18.02;10.55;;;6.30;46.80;;;;;;5054065;28;20190;-70
2023/03/08 00:17:15;;;;;;;19.63;10.30;;;6.20;47.30;;;;;;5054629;28;20244;-69
2023/03/08 00:19:45;;;;;;;14.43;10.10;;;6.20;47.20;;;;;;5065071;28;20268;-68
2023/03/08 00:22:13;;;;;;;15.18;9.40;;;6.30;47.00;;;;;;5072765;28;20249;-70
2023/03/08 00:24:40;;;;;;;13.20;10.23;;;6.20;46.90;;;;;;5072478;28;20190;-69
2023/03/08 00:27:07;;;;;;;16.58;8.93;;;6.20;47.00;;;;;;5074765;28;20225;-69
2023/03/08 00:29:34;;;;;;;13.07;8.25;;;6.30;46.90;;;;;;5071609;28;20240;-69
2023/03/08 00:32:01;;;;;;;13.10;8.27;;;6.20;46.60;;;;;;5074536;28;20280;-69
2023/03/08 00:34:28;;;;;;;16.08;8.35;;;6.20;46.60;;;;;;5054539;28;20187;-69
2023/03/08 00:36:56;;;;;;;13.65;7.75;;;6.20;46.20;;;;;;5054660;28;20285;-69
2023/03/08 00:39:23;;;;;;;14.18;8.23;;;6.20;46.40;;;;;;5063380;28;20273;-69
2023/03/08 00:41:50;;;;;;;15.50;9.27;;;6.10;46.30;;;;;;5074346;28;20308;-69
2023/03/08 00:44:17;;;;;;;14.93;7.93;;;6.00;46.50;;;;;;5055168;28;20197;-69
2023/03/08 00:46:44;;;;;;;13.40;8.38;;;6.10;46.80;;;;;;5054388;28;20269;-69
2023/03/08 00:49:12;;;;;;;13.65;8.07;;;6.10;46.30;;;;;;5062888;28;20186;-69
2023/03/08 00:51:40;;;;;;;12.57;8.02;;;6.00;46.30;;;;;;5073602;28;20193;-69
2023/03/08 00:54:08;;;;;;;17.38;9.35;;;6.00;46.30;;;;;;5071394;28;20542;-70
2023/03/08 00:56:35;;;;;;;14.05;8.10;;;6.00;46.50;;;;;;5073863;28;20247;-69
2023/03/08 00:59:02;;;;;;;12.75;8.73;;;6.00;46.70;;;;;;5063577;28;20272;-69
2023/03/08 01:01:29;;;;;;;15.75;8.77;;;6.00;46.80;;;;;;5073591;28;20235;-70
2023/03/08 01:03:56;;;;;;;14.55;8.80;;;5.90;46.60;;;;;;5060730;28;20248;-70
2023/03/08 01:06:23;;;;;;;14.90;8.82;;;5.90;46.90;;;;;;5053981;28;20700;-69
2023/03/08 01:08:50;;;;;;;16.10;9.35;;;5.90;46.90;;;;;;5062733;28;20715;-69
2023/03/08 01:11:21;;;;;;;12.93;8.90;;;5.90;47.10;;;;;;5073609;28;20197;-69
2023/03/08 01:13:49;;;;;;;11.93;7.90;;;5.80;47.10;;;;;;5067006;28;20197;-69
2023/03/08 01:16:18;;;;;;;20.13;10.50;;;5.80;47.30;;;;;;5073221;28;20225;-69
2023/03/08 01:18:45;;;;;;;17.85;9.48;;;5.70;47.40;;;;;;5056459;28;20273;-69
2023/03/08 01:21:12;;;;;;;18.15;9.35;;;5.70;47.60;;;;;;5053124;28;20192;-69
2023/03/08 01:23:39;;;;;;;17.02;9.13;;;5.70;47.40;;;;;;5053115;28;20304;-71
2023/03/08 01:26:10;;;;;;;15.30;9.55;;;5.60;47.50;;;;;;5053720;28;20597;-69
2023/03/08 01:28:39;;;;;;;15.52;8.30;;;5.70;47.70;;;;;;5061887;28;20644;-70
2023/03/08 01:31:07;;;;;;;20.77;10.98;;;5.60;47.70;;;;;;5073344;28;20247;-69
2023/03/08 01:33:35;;;;;;;16.05;10.15;;;5.60;47.60;;;;;;5061248;28;20304;-68
2023/03/08 01:36:04;;;;;;;14.77;8.40;;;5.60;47.70;;;;;;5053459;28;20209;-69
2023/03/08 01:38:31;;;;;;;16.73;9.65;;;5.50;47.90;;;;;;5060544;28;20200;-68
2023/03/08 01:40:59;;;;;;;19.13;9.35;;;5.50;47.90;;;;;;5072875;28;20198;-69
2023/03/08 01:43:27;;;;;;;14.45;9.40;;;5.50;47.90;;;;;;5062861;28;20214;-69
2023/03/08 01:46:27;;;;;;;17.38;9.98;;;5.50;47.80;;;;;;5072122;28;20629;-68
2023/03/08 01:49:00;;;;;;;16.80;8.88;;;5.60;47.70;;;;;;5052361;28;20645;-69
2023/03/08 01:51:34;;;;;;;14.82;9.55;;;5.70;47.50;;;;;;5053391;28;20289;-68
2023/03/08 01:54:04;;;;;;;16.85;9.60;;;5.70;47.50;;;;;;5072064;28;20174;-69
2023/03/08 01:56:32;;;;;;;17.33;9.05;;;5.70;47.50;;;;;;5070086;28;20284;-69
2023/03/08 01:59:00;;;;;;;16.20;8.25;;;5.70;47.60;;;;;;5066395;28;20178;-68
2023/03/08 02:01:29;;;;;;;18.73;8.75;;;5.70;47.20;;;;;;5072280;28;20324;-69
2023/03/08 02:03:56;;;;;;;18.88;9.50;;;5.70;47.10;;;;;;5053460;28;20333;-69
2023/03/08 02:06:23;;;;;;;16.10;8.35;;;5.70;47.20;;;;;;5052567;28;20624;-70
2023/03/08 02:08:51;;;;;;;15.27;9.98;;;5.80;47.30;;;;;;5052251;28;20644;-69
2023/03/08 02:11:20;;;;;;;14.00;8.48;;;5.80;47.00;;;;;;5055562;28;20201;-70
2023/03/08 02:13:49;;;;;;;15.00;9.55;;;5.80;46.90;;;;;;5051716;28;20194;-69
2023/03/08 02:16:17;;;;;;;20.25;9.45;;;5.90;46.80;;;;;;5051271;28;20656;-69
2023/03/08 02:18:55;;;;;;;19.75;9.20;;;5.90;46.80;;;;;;5052288;28;20281;-69
2023/03/08 02:21:23;;;;;;;16.17;9.75;;;5.90;46.60;;;;;;5067058;28;20272;-69
2023/03/08 02:23:51;;;;;;;12.70;8.85;;;5.90;46.60;;;;;;5072572;28;20625;-69
2023/03/08 02:26:19;;;;;;;14.93;9.40;;;5.90;46.80;;;;;;5065820;28;20273;-69
2023/03/08 02:28:46;;;;;;;13.65;7.10;;;5.80;46.80;;;;;;5072436;28;20193;-68
2023/03/08 02:31:16;;;;;;;17.15;9.82;;;5.80;46.80;;;;;;5060280;28;20191;-70
2023/03/08 02:33:43;;;;;;;17.65;9.90;;;5.80;46.90;;;;;;5066594;28;20217;-69
2023/03/08 02:36:10;;;;;;;13.75;9.20;;;5.70;47.20;;;;;;5072378;28;20227;-69
2023/03/08 02:38:38;;;;;;;16.75;9.93;;;5.60;47.50;;;;;;5055985;28;20217;-69
2023/03/08 02:41:06;;;;;;;18.10;9.02;;;5.50;47.70;;;;;;5051777;28;20259;-68
2023/03/08 02:43:33;;;;;;;16.05;9.35;;;5.40;48.00;;;;;;5052376;28;20222;-68
2023/03/08 02:46:00;;;;;;;14.88;9.15;;;5.40;48.30;;;;;;5052389;28;20198;-68
2023/03/08 02:48:27;;;;;;;15.15;8.80;;;5.30;48.50;;;;;;5072632;28;20216;-68
2023/03/08 02:50:54;;;;;;;16.98;10.50;;;5.20;48.70;;;;;;5065584;28;20263;-68
2023/03/08 02:53:21;;;;;;;12.75;8.55;;;5.20;48.90;;;;;;5051968;28;20213;-69
2023/03/08 02:55:48;;;;;;;16.52;9.63;;;5.10;49.10;;;;;;5052436;28;20269;-69
2023/03/08 02:58:16;;;;;;;16.70;9.02;;;5.10;49.20;;;;;;5052060;28;20257;-68
2023/03/08 03:00:43;;;;;;;13.27;8.48;;;5.00;49.40;;;;;;5051400;28;20637;-70
2023/03/08 03:03:10;;;;;;;17.73;9.77;;;5.00;49.60;;;;;;5060561;28;20222;-68
2023/03/08 03:05:42;;;;;;;22.60;10.45;;;5.00;49.70;;;;;;5062950;28;20269;-68
2023/03/08 03:08:09;;;;;;;16.92;9.13;;;4.90;50.00;;;;;;5051873;28;20190;-68
2023/03/08 03:10:37;;;;;;;17.70;10.23;;;4.80;50.10;;;;;;5051165;28;20191;-69
2023/03/08 03:13:04;;;;;;;17.52;10.38;;;4.80;50.40;;;;;;5052284;28;20194;-68
2023/03/08 03:15:33;;;;;;;22.73;9.90;;;4.80;50.50;;;;;;5054559;28;20276;-68
2023/03/08 03:18:00;;;;;;;17.02;9.60;;;4.80;50.50;;;;;;5072442;28;20616;-68
2023/03/08 03:20:27;;;;;;;14.73;9.38;;;4.90;50.60;;;;;;5063260;28;20205;-69
2023/03/08 03:22:54;;;;;;;15.45;9.55;;;4.80;50.90;;;;;;5056487;28;20241;-69
2023/03/08 03:25:21;;;;;;;19.05;9.93;;;4.70;51.10;;;;;;5055011;28;20777;-68
2023/03/08 03:27:48;;;;;;;16.17;9.30;;;4.70;51.30;;;;;;5055505;28;20711;-68
2023/03/08 03:30:15;;;;;;;15.93;9.80;;;4.70;51.30;;;;;;5056065;28;20186;-68
2023/03/08 03:32:44;;;;;;;15.50;10.00;;;4.60;51.60;;;;;;5075349;28;20196;-68
2023/03/08 03:35:11;;;;;;;14.50;9.18;;;4.60;52.00;;;;;;5072368;28;20223;-69
2023/03/08 03:37:38;;;;;;;18.58;10.23;;;4.50;52.20;;;;;;5055901;28;20194;-69
2023/03/08 03:40:06;;;;;;;16.88;9.70;;;4.40;52.70;;;;;;5054697;28;20200;-69
2023/03/08 03:42:33;;;;;;;15.30;10.50;;;4.40;53.30;;;;;;5074781;28;20259;-68
2023/03/08 03:44:59;;;;;;;17.35;10.35;;;4.40;53.70;;;;;;5070610;28;20261;-69
2023/03/08 03:47:26;;;;;;;16.42;10.50;;;4.40;54.30;;;;;;5065532;28;20209;-68
2023/03/08 03:49:55;;;;;;;21.05;10.60;;;4.30;54.60;;;;;;5035170;28;20183;-68
2023/03/08 03:52:22;;;;;;;19.33;10.20;;;4.30;54.90;;;;;;5049331;28;20191;-68
2023/03/08 03:54:49;;;;;;;17.70;11.05;;;4.30;55.20;;;;;;5055379;28;20190;-68
2023/03/08 03:57:16;;;;;;;24.25;11.82;;;4.20;55.40;;;;;;5067580;28;20575;-68
2023/03/08 03:59:43;;;;;;;15.57;9.98;;;4.10;55.80;;;;;;5069168;28;20186;-71
2023/03/08 04:02:10;;;;;;;19.38;9.98;;;4.20;56.10;;;;;;5074919;28;20229;-68
2023/03/08 04:04:37;;;;;;;17.80;10.13;;;4.20;56.10;;;;;;5072633;28;20228;-69
2023/03/08 04:07:05;;;;;;;20.10;10.52;;;4.20;56.20;;;;;;5052266;28;20217;-68
2023/03/08 04:09:32;;;;;;;17.38;10.35;;;4.00;56.60;;;;;;5054125;28;20209;-71
2023/03/08 04:12:01;;;;;;;19.80;11.02;;;4.00;56.80;;;;;;5072602;28;20636;-68
2023/03/08 04:14:28;;;;;;;17.35;10.30;;;4.00;56.90;;;;;;5073057;28;20228;-69
2023/03/08 04:16:55;;;;;;;13.55;9.25;;;4.00;57.20;;;;;;5053671;28;20252;-68
2023/03/08 04:19:22;;;;;;;21.33;10.55;;;4.10;57.20;;;;;;5054992;28;20198;-70
2023/03/08 04:21:50;;;;;;;23.77;11.35;;;4.00;57.30;;;;;;5071222;28;20644;-68
2023/03/08 04:24:18;;;;;;;18.00;11.15;;;4.00;57.50;;;;;;5072666;28;20257;-69
2023/03/08 04:26:45;;;;;;;16.00;10.45;;;4.00;57.70;;;;;;5065710;28;20221;-69
2023/03/08 04:29:12;;;;;;;17.48;9.85;;;4.10;57.70;;;;;;5075065;28;20221;-69
2023/03/08 04:31:39;;;;;;;17.92;10.25;;;4.10;57.60;;;;;;5054830;28;20531;-69
2023/03/08 04:34:06;;;;;;;20.48;11.75;;;4.10;57.80;;;;;;5052671;28;20353;-68
2023/03/08 04:36:33;;;;;;;15.27;10.60;;;4.00;58.00;;;;;;5067346;28;20216;-67
2023/03/08 04:39:00;;;;;;;15.38;8.90;;;4.00;57.90;;;;;;5074645;28;20229;-68
2023/03/08 04:41:28;;;;;;;16.70;10.80;;;4.00;58.00;;;;;;5068412;28;20273;-68
2023/03/08 04:43:56;;;;;;;19.08;11.02;;;4.00;58.10;;;;;;5074178;28;20304;-68
2023/03/08 04:46:26;;;;;;;16.42;8.07;;;4.00;58.10;;;;;;5056653;28;20268;-68
2023/03/08 04:48:54;;;;;;;23.48;10.80;;;4.00;58.20;;;;;;5054874;28;20193;-68
2023/03/08 04:51:23;;;;;;;18.65;11.07;;;4.00;58.10;;;;;;5052966;28;20546;-70
2023/03/08 04:53:50;;;;;;;19.15;10.48;;;4.00;58.30;;;;;;5055137;28;20668;-69
2023/03/08 04:56:18;;;;;;;20.75;11.05;;;4.00;58.10;;;;;;5053483;28;20229;-68
2023/03/08 04:58:46;;;;;;;19.27;10.45;;;4.00;58.10;;;;;;5070585;28;20192;-69
2023/03/08 05:01:16;;;;;;;18.27;11.50;;;3.90;58.30;;;;;;5073790;28;20763;-69
2023/03/08 05:03:43;;;;;;;19.33;13.50;;;3.90;58.70;;;;;;5068308;28;20304;-69
2023/03/08 05:06:12;;;;;;;21.95;12.43;;;3.80;58.90;;;;;;5073530;28;20197;-69
2023/03/08 05:08:39;;;;;;;21.48;14.90;;;3.80;59.20;;;;;;5055389;28;20211;-70
2023/03/08 05:11:07;;;;;;;25.35;12.30;;;3.70;59.30;;;;;;5054107;28;20641;-69
2023/03/08 05:13:36;;;;;;;17.23;11.50;;;3.70;59.40;;;;;;5064008;28;20250;-69
2023/03/08 05:16:06;;;;;;;15.18;10.15;;;3.70;59.60;;;;;;5073323;28;20221;-69
2023/03/08 05:18:33;;;;;;;19.40;10.75;;;3.80;59.60;;;;;;5052003;28;20235;-69
2023/03/08 05:21:02;;;;;;;21.42;11.57;;;3.70;59.70;;;;;;5053410;28;20237;-69
2023/03/08 05:23:29;;;;;;;15.27;9.52;;;3.70;59.90;;;;;;5053268;28;20566;-69
2023/03/08 05:25:57;;;;;;;20.55;12.23;;;3.70;60.10;;;;;;5053462;28;20221;-69
2023/03/08 05:28:26;;;;;;;17.25;10.90;;;3.70;60.10;;;;;;5064333;28;20679;-69
2023/03/08 05:31:01;;;;;;;16.45;11.63;;;3.70;60.30;;;;;;5072667;28;20691;-69
2023/03/08 05:33:29;;;;;;;18.02;10.35;;;3.70;60.10;;;;;;5068565;28;20700;-69
2023/03/08 05:35:57;;;;;;;17.42;10.38;;;3.70;60.00;;;;;;5072668;28;20201;-70
2023/03/08 05:38:24;;;;;;;19.92;10.60;;;3.70;59.90;;;;;;5057510;28;20230;-69
2023/03/08 05:40:52;;;;;;;16.95;10.00;;;3.70;59.90;;;;;;5053174;28;20285;-69
2023/03/08 05:43:20;;;;;;;16.27;10.15;;;3.80;60.00;;;;;;5061867;28;20305;-69
2023/03/08 05:45:55;;;;;;;16.48;9.98;;;3.80;59.90;;;;;;5051178;28;20194;-70
2023/03/08 05:48:22;;;;;;;17.60;11.35;;;3.70;59.90;;;;;;5053096;28;20196;-69
2023/03/08 05:50:52;;;;;;;21.10;10.68;;;3.70;59.80;;;;;;5052526;28;20196;-69
2023/03/08 05:53:19;;;;;;;19.15;10.35;;;3.80;60.00;;;;;;5052588;28;20285;-69
2023/03/08 05:55:46;;;;;;;19.67;11.35;;;3.80;60.30;;;;;;5057451;28;20269;-69
2023/03/08 05:58:13;;;;;;;20.65;11.32;;;3.80;60.30;;;;;;5073272;28;20243;-69
2023/03/08 06:00:40;;;;;;;19.38;10.65;;;3.90;60.10;;;;;;5059414;28;20186;-69
2023/03/08 06:03:07;;;;;;;18.67;11.98;;;3.90;59.90;;;;;;5052977;28;20320;-69
2023/03/08 06:05:35;;;;;;;15.75;9.50;;;3.90;60.10;;;;;;5059647;28;20277;-69
2023/03/08 06:08:03;;;;;;;17.98;11.30;;;4.00;60.00;;;;;;5054783;28;20225;-69
2023/03/08 06:10:30;;;;;;;23.50;12.63;;;4.00;60.20;;;;;;5052631;28;20236;-70
2023/03/08 06:12:57;;;;;;;22.15;12.05;;;4.00;60.30;;;;;;5052502;28;20236;-68
2023/03/08 06:15:24;;;;;;;18.13;10.55;;;4.00;60.30;;;;;;5052639;28;20221;-69
2023/03/08 06:17:53;;;;;;;19.95;11.10;;;4.10;60.20;;;;;;5061838;28;20725;-68
2023/03/08 06:20:20;;;;;;;19.98;11.82;;;4.10;60.30;;;;;;5072628;28;20556;-68
2023/03/08 06:22:47;;;;;;;21.98;13.82;;;4.20;60.50;;;;;;5053512;28;20194;-69
2023/03/08 06:25:15;;;;;;;15.10;9.80;;;4.20;60.60;;;;;;5050694;28;20324;-68
2023/03/08 06:27:42;;;;;;;21.48;12.18;;;4.20;60.70;;;;;;5053087;28;20326;-68
2023/03/08 06:30:13;;;;;;;21.52;11.70;;;4.30;61.00;;;;;;5051093;28;20273;-71
2023/03/08 06:32:41;;;;;;;22.90;11.20;;;4.30;60.70;;;;;;5051547;28;20244;-68
2023/03/08 06:35:09;;;;;;;24.42;10.93;;;4.30;60.50;;;;;;5049326;28;21208;-69
2023/03/08 06:37:39;;;;;;;25.15;13.70;;;4.30;60.90;;;;;;5050980;28;20281;-71
2023/03/08 06:40:12;;;;;;;30.92;16.48;;;4.30;61.10;;;;;;5050629;28;20209;-68
2023/03/08 06:42:40;;;;;;;21.50;14.40;;;4.40;60.90;;;;;;5050795;28;20199;-69
2023/03/08 06:45:09;;;;;;;28.88;14.82;;;4.40;60.90;;;;;;5049621;28;20313;-71
2023/03/08 06:47:36;;;;;;;23.50;13.23;;;4.50;60.80;;;;;;5049702;28;20190;-69
2023/03/08 06:50:03;;;;;;;20.08;10.63;;;4.50;61.10;;;;;;5050358;28;20305;-72
2023/03/08 06:52:36;;;;;;;21.80;12.85;;;4.60;61.10;;;;;;5050458;28;20304;-68
2023/03/08 06:55:03;;;;;;;16.85;9.95;;;4.70;60.60;;;;;;5050602;28;20216;-70
2023/03/08 06:57:32;;;;;;;22.73;11.05;;;4.80;60.50;;;;;;5053630;28;20285;-70
2023/03/08 07:00:00;;;;;;;21.88;12.85;;;5.00;60.90;;;;;;5053850;28;20195;-69
2023/03/08 07:02:27;;;;;;;16.60;10.63;;;5.20;59.70;;;;;;5053560;28;20269;-69
2023/03/08 07:04:54;;;;;;;17.10;10.50;;;5.20;60.80;;;;;;5053906;28;20296;-69
2023/03/08 07:07:21;;;;;;;18.88;11.02;;;5.30;59.50;;;;;;5053014;28;20272;-69
2023/03/08 07:09:48;;;;;;;19.05;12.55;;;5.40;59.20;;;;;;5053955;28;20190;-69
2023/03/08 07:12:21;;;;;;;22.95;13.73;;;5.50;58.80;;;;;;5050079;28;20284;-69
2023/03/08 07:14:48;;;;;;;22.42;12.10;;;5.50;58.70;;;;;;5051255;28;20240;-69
2023/03/08 07:17:17;;;;;;;18.35;12.85;;;5.50;58.60;;;;;;5053922;28;20637;-69
2023/03/08 07:19:44;;;;;;;19.13;11.60;;;5.60;58.50;;;;;;5052916;28;20191;-69
2023/03/08 07:22:11;;;;;;;17.70;10.55;;;5.70;58.60;;;;;;5052509;28;20194;-70
2023/03/08 07:24:38;;;;;;;21.77;13.25;;;5.70;58.80;;;;;;5054949;28;20295;-69
2023/03/08 07:27:06;;;;;;;20.80;12.48;;;5.80;58.40;;;;;;5053986;28;20245;-69
2023/03/08 07:29:32;;;;;;;21.38;14.90;;;5.80;58.70;;;;;;5051945;28;20243;-69
2023/03/08 07:31:59;;;;;;;23.10;14.25;;;5.80;58.50;;;;;;5044351;28;20198;-70
2023/03/08 07:34:28;;;;;;;20.83;13.02;;;5.90;58.60;;;;;;5049229;28;20178;-69
2023/03/08 07:36:55;;;;;;;16.52;11.20;;;5.90;58.40;;;;;;5053625;28;20193;-69
2023/03/08 07:39:22;;;;;;;20.75;12.43;;;6.00;58.30;;;;;;5054023;28;20199;-69
2023/03/08 07:41:49;;;;;;;20.05;11.18;;;6.00;58.20;;;;;;5053559;28;20198;-69
2023/03/08 07:44:16;;;;;;;20.52;12.70;;;6.10;57.80;;;;;;5054054;28;20267;-69
2023/03/08 07:46:43;;;;;;;19.05;11.70;;;6.10;57.60;;;;;;5052722;28;20282;-70
2023/03/08 07:49:10;;;;;;;21.58;12.50;;;6.10;57.30;;;;;;5055849;28;20262;-69
2023/03/08 07:51:39;;;;;;;21.80;11.98;;;6.20;57.10;;;;;;5050262;28;20546;-69
2023/03/08 07:54:06;;;;;;;26.35;12.15;;;6.20;57.40;;;;;;5054519;28;20679;-68
2023/03/08 07:56:33;;;;;;;19.27;11.20;;;6.30;57.50;;;;;;5053456;28;20222;-69
2023/03/08 07:59:00;;;;;;;24.02;12.85;;;6.50;57.20;;;;;;5053160;28;20218;-69
2023/03/08 08:01:27;;;;;;;19.00;12.10;;;6.70;57.30;;;;;;5052268;28;20272;-69
2023/03/08 08:03:54;;;;;;;17.75;10.65;;;7.10;57.20;;;;;;5051385;28;20676;-70
2023/03/08 08:06:20;;;;;;;18.85;12.63;;;7.70;57.00;;;;;;5054250;28;20220;-69
2023/03/08 08:08:49;;;;;;;21.95;13.85;;;8.10;54.50;;;;;;5052590;28;20277;-69
2023/03/08 08:11:18;;;;;;;24.05;13.63;;;8.30;53.10;;;;;;5049918;28;20626;-69
2023/03/08 08:13:46;;;;;;;17.17;11.60;;;8.40;51.20;;;;;;5051607;28;20191;-69
2023/03/08 08:16:14;;;;;;;17.70;12.38;;;8.50;51.40;;;;;;5052620;28;20550;-71
2023/03/08 08:18:41;;;;;;;23.65;12.60;;;8.90;50.70;;;;;;5052729;28;20244;-70
2023/03/08 08:21:10;;;;;;;18.90;12.23;;;9.80;49.40;;;;;;5051891;28;20274;-70
2023/03/08 08:23:38;;;;;;;17.25;11.35;;;11.20;45.40;;;;;;5051829;28;20187;-69
2023/03/08 08:26:08;;;;;;;17.25;11.10;;;11.50;42.90;;;;;;5047757;28;20514;-69
2023/03/08 08:28:36;;;;;;;22.33;13.18;;;11.20;42.70;;;;;;5051251;28;20198;-69
2023/03/08 08:31:06;;;;;;;18.40;12.63;;;10.90;42.40;;;;;;5051217;28;20226;-69
2023/03/08 08:33:34;;;;;;;15.50;11.10;;;10.50;42.80;;;;;;5053142;28;20617;-69
2023/03/08 08:36:04;;;;;;;17.40;11.23;;;10.00;42.80;;;;;;5052558;28;20222;-68
2023/03/08 08:38:31;;;;;;;18.67;12.40;;;9.80;44.80;;;;;;5052902;28;20273;-69
2023/03/08 08:41:00;;;;;;;14.98;10.35;;;9.60;45.10;;;;;;5051134;28;20193;-71
2023/03/08 08:43:29;;;;;;;18.50;9.68;;;9.50;44.80;;;;;;5054098;28;20212;-69
2023/03/08 08:45:58;;;;;;;19.83;11.40;;;9.30;44.90;;;;;;5051300;28;20301;-69
2023/03/08 08:48:27;;;;;;;16.42;11.30;;;9.00;44.80;;;;;;5052851;28;20277;-69
2023/03/08 08:50:54;;;;;;;22.95;11.10;;;8.80;45.90;;;;;;5050275;28;20266;-69
2023/03/08 08:53:22;;;;;;;22.45;11.98;;;8.70;46.40;;;;;;5051442;28;20182;-70
2023/03/08 08:55:49;;;;;;;18.92;13.05;;;8.60;46.10;;;;;;5050063;28;20228;-70
2023/03/08 08:58:16;;;;;;;18.85;11.18;;;8.50;46.20;;;;;;5050105;28;20273;-69
2023/03/08 09:00:45;;;;;;;19.50;11.80;;;8.40;47.00;;;;;;5050667;28;20281;-69
2023/03/08 09:03:12;;;;;;;24.05;10.85;;;8.40;47.00;;;;;;5049110;28;20248;-70
2023/03/08 09:05:40;;;;;;;25.73;14.85;;;8.30;46.80;;;;;;5052367;28;20684;-69
2023/03/08 09:08:08;;;;;;;14.88;10.23;;;8.30;47.30;;;;;;5051648;28;20282;-70
2023/03/08 09:10:38;;;;;;;20.13;12.35;;;8.30;47.60;;;;;;5047896;28;20183;-69
2023/03/08 09:13:05;;;;;;;18.63;10.45;;;8.30;47.70;;;;;;5051351;28;20619;-68
2023/03/08 09:15:34;;;;;;;16.25;9.80;;;8.40;47.60;;;;;;5052244;28;20218;-68
2023/03/08 09:18:02;;;;;;;20.60;10.93;;;8.40;48.30;;;;;;5050497;28;20290;-69
2023/03/08 09:20:29;;;;;;;18.05;10.23;;;8.50;48.70;;;;;;5051880;28;20295;-69
2023/03/08 09:22:56;;;;;;;27.23;11.68;;;8.60;48.30;;;;;;5052154;28;20597;-69
2023/03/08 09:25:24;;;;;;;18.85;12.10;;;8.70;48.60;;;;;;5051861;28;20222;-70
2023/03/08 09:27:51;;;;;;;18.90;11.07;;;9.00;48.30;;;;;;5052748;28;20190;-69
2023/03/08 09:30:19;;;;;;;16.80;11.25;;;9.20;47.80;;;;;;5051447;28;20712;-69
2023/03/08 09:32:46;;;;;;;16.73;10.85;;;9.60;47.40;;;;;;5051423;28;20187;-70
2023/03/08 09:35:15;;;;;;;19.25;12.07;;;10.70;45.90;;;;;;5051165;28;20244;-72
2023/03/08 09:37:42;;;;;;;18.77;11.60;;;12.00;43.10;;;;;;5052762;28;20192;-69
2023/03/08 09:40:19;;;;;;;18.40;11.43;;;12.20;41.30;;;;;;5052887;28;20269;-70
2023/03/08 09:42:47;;;;;;;16.67;11.05;;;11.90;40.40;;;;;;5050915;28;20194;-70
2023/03/08 09:45:21;;;;;;;18.63;12.30;;;11.60;41.10;;;;;;5051096;28;20206;-70
2023/03/08 09:47:51;;;;;;;18.38;11.57;;;11.30;41.10;;;;;;5051043;28;20277;-69
2023/03/08 09:50:32;;;;;;;17.35;11.60;;;11.20;40.80;;;;;;5051676;28;20183;-69
2023/03/08 09:53:14;;;;;;;16.75;11.30;;;10.90;41.30;;;;;;5051631;28;20190;-69
2023/03/08 09:55:47;;;;;;;18.73;11.70;;;10.80;41.70;;;;;;5051450;28;20186;-69
2023/03/08 09:58:22;;;;;;;19.83;14.32;;;10.60;41.80;;;;;;5055645;28;20244;-69
2023/03/08 10:00:49;;;;;;;27.35;15.30;;;10.40;42.20;;;;;;5047941;28;20190;-69
2023/03/08 10:03:30;;;;;;;16.60;11.82;;;10.30;43.60;;;;;;5052603;28;20627;-69
2023/03/08 10:06:04;;;;;;;20.83;12.10;;;10.20;43.40;;;;;;5047603;28;20313;-69
2023/03/08 10:08:37;;;;;;;15.43;10.88;;;10.20;43.40;;;;;;5051683;28;20611;-72
2023/03/08 10:11:12;;;;;;;18.95;10.98;;;10.00;44.20;;;;;;5050856;28;20251;-69
2023/03/08 10:13:41;;;;;;;16.85;10.93;;;10.10;44.50;;;;;;5052408;28;20571;-69
2023/03/08 10:16:16;;;;;;;20.92;11.38;;;10.10;45.10;;;;;;5054336;28;20192;-70
2023/03/08 10:18:51;;;;;;;16.52;11.80;;;10.20;45.10;;;;;;5052287;28;20231;-69
2023/03/08 10:21:21;;;;;;;13.98;11.23;;;10.20;44.40;;;;;;5050732;28;20277;-69
2023/03/08 10:23:57;;;;;;;20.50;11.15;;;10.30;44.50;;;;;;5047202;28;20195;-69
2023/03/08 10:26:28;;;;;;;17.75;11.05;;;10.40;44.10;;;;;;5050998;28;20222;-69
2023/03/08 10:28:55;;;;;;;16.35;11.73;;;10.40;44.50;;;;;;5053835;28;20213;-69
2023/03/08 10:31:25;;;;;;;17.30;11.48;;;10.60;44.70;;;;;;5056810;28;20273;-69
2023/03/08 10:34:01;;;;;;;14.20;10.85;;;10.50;43.30;;;;;;5057588;28;20288;-69
2023/03/08 10:36:30;;;;;;;16.95;10.90;;;10.20;43.50;;;;;;5052558;28;20243;-69
2023/03/08 10:39:00;;;;;;;17.42;10.85;;;10.10;44.70;;;;;;5057749;28;20222;-69
2023/03/08 10:41:31;;;;;;;18.85;11.35;;;10.20;44.90;;;;;;5057276;28;20193;-69
2023/03/08 10:43:59;;;;;;;22.13;11.45;;;10.30;45.70;;;;;;5058683;28;20287;-72
2023/03/08 10:46:29;;;;;;;19.02;10.90;;;10.40;44.80;;;;;;5054108;28;20210;-69
2023/03/08 10:49:06;;;;;;;18.40;11.80;;;10.40;44.60;;;;;;5056910;28;20202;-70
2023/03/08 10:51:34;;;;;;;17.13;11.30;;;10.40;44.60;;;;;;5059459;28;20252;-69
2023/03/08 10:54:03;;;;;;;15.02;10.75;;;10.40;44.60;;;;;;5057431;28;20277;-69
2023/03/08 10:56:36;;;;;;;17.40;10.95;;;10.40;44.80;;;;;;5056966;28;20201;-70
2023/03/08 10:59:05;;;;;;;27.42;16.35;;;10.50;44.80;;;;;;5052987;28;20190;-69
2023/03/08 11:01:34;;;;;;;22.70;14.00;;;10.60;45.40;;;;;;5056114;28;20218;-70
2023/03/08 11:04:03;;;;;;;22.63;14.23;;;10.70;45.30;;;;;;5055923;28;20186;-70
2023/03/08 11:06:30;;;;;;;18.90;11.20;;;10.60;46.30;;;;;;5056666;28;20226;-69
2023/03/08 11:09:00;;;;;;;20.73;11.85;;;10.60;45.80;;;;;;5057078;28;20266;-71
2023/03/08 11:11:27;;;;;;;18.27;11.25;;;10.60;46.30;;;;;;5057594;28;20877;-71
2023/03/08 11:13:55;;;;;;;15.85;11.35;;;10.50;46.00;;;;;;5056160;28;20233;-69
2023/03/08 11:16:38;;;;;;;19.80;11.40;;;10.50;45.60;;;;;;5057034;28;20683;-69
2023/03/08 11:19:31;;;;;;;19.73;11.35;;;10.50;46.20;;;;;;5057361;28;20243;-70
2023/03/08 11:22:04;;;;;;;17.08;11.15;;;10.60;46.50;;;;;;5055355;28;20185;-69
2023/03/08 11:24:53;;;;;;;15.85;10.50;;;10.70;46.60;;;;;;5053868;28;20223;-69
2023/03/08 11:27:34;;;;;;;23.42;12.57;;;10.70;46.60;;;;;;5054491;28;20600;-69
2023/03/08 11:30:11;;;;;;;18.15;10.90;;;10.70;47.30;;;;;;5056850;28;20237;-70
2023/03/08 11:32:51;;;;;;;18.05;11.43;;;10.80;46.80;;;;;;5054358;28;20194;-70
2023/03/08 11:35:25;;;;;;;16.35;10.65;;;11.00;47.10;;;;;;5056169;28;20643;-69
2023/03/08 11:37:59;;;;;;;16.20;10.25;;;11.10;46.90;;;;;;5056126;28;20248;-69
2023/03/08 11:40:30;;;;;;;16.15;10.68;;;11.20;46.40;;;;;;5056672;28;20190;-69
2023/03/08 11:43:18;;;;;;;20.25;13.68;;;11.30;45.80;;;;;;5051378;28;20229;-68
2023/03/08 11:45:53;;;;;;;14.50;9.48;;;11.40;45.90;;;;;;5048996;28;20210;-69
2023/03/08 11:48:35;;;;;;;16.67;10.73;;;11.50;45.90;;;;;;5057648;28;20260;-70
2023/03/08 11:51:09;;;;;;;20.50;11.07;;;11.90;45.10;;;;;;5054598;28;20193;-69
2023/03/08 11:53:47;;;;;;;23.63;14.43;;;12.00;44.90;;;;;;5053875;28;20280;-69
2023/03/08 11:56:32;;;;;;;15.40;11.15;;;12.40;44.40;;;;;;5048318;28;20257;-70
2023/03/08 11:59:05;;;;;;;15.70;11.07;;;12.90;43.80;;;;;;5049692;28;20274;-70
2023/03/08 12:01:38;;;;;;;12.95;9.73;;;13.50;42.30;;;;;;5053228;28;20218;-69
2023/03/08 12:04:11;;;;;;;15.95;10.45;;;14.00;40.70;;;;;;5052062;28;20577;-69
2023/03/08 12:06:41;;;;;;;18.67;11.30;;;14.10;40.00;;;;;;5052873;28;20226;-70
2023/03/08 12:09:18;;;;;;;12.18;7.85;;;14.10;39.30;;;;;;5052486;28;20240;-69
2023/03/08 12:11:51;;;;;;;13.20;6.75;;;14.10;39.10;;;;;;5050242;28;20194;-69
2023/03/08 12:14:21;;;;;;;11.67;6.87;;;14.30;39.80;;;;;;5052655;28;20190;-69
2023/03/08 12:16:51;;;;;;;9.77;7.17;;;14.60;39.40;;;;;;5054861;28;20468;-69
2023/03/08 12:19:26;;;;;;;10.30;6.17;;;14.90;39.20;;;;;;5055618;28;20495;-70
2023/03/08 12:22:17;;;;;;;9.20;6.00;;;15.30;39.40;;;;;;5054005;28;20436;-70
2023/03/08 12:24:48;;;;;;;7.90;4.57;;;16.20;39.50;;;;;;5054573;28;20511;-70
2023/03/08 12:27:22;;;;;;;4.93;2.60;;;16.30;39.50;;;;;;5049703;28;20859;-69
2023/03/08 12:29:55;;;;;;;4.23;2.03;;;16.20;40.00;;;;;;5050770;28;20472;-70
2023/03/08 12:32:22;;;;;;;2.83;1.57;;;16.00;40.90;;;;;;5052942;28;20525;-69
2023/03/08 12:35:02;;;;;;;2.40;1.30;;;15.90;41.90;;;;;;5050987;28;20433;-70
2023/03/08 12:37:30;;;;;;;2.00;1.13;;;15.70;42.60;;;;;;5051391;28;20443;-69
2023/03/08 12:40:02;;;;;;;2.27;1.10;;;15.80;43.40;;;;;;5049589;28;20440;-70
2023/03/08 12:42:33;;;;;;;2.03;1.20;;;16.00;43.60;;;;;;5050927;28;20437;-70
2023/03/08 12:45:09;;;;;;;1.77;1.00;;;16.60;43.00;;;;;;5050460;28;20491;-71
2023/03/08 12:47:36;;;;;;;2.10;0.97;;;16.90;42.20;;;;;;5048223;28;20498;-69